createdAt,value
2023-03-26T00:02:07.358Z,56.08
2023-03-26T00:04:35.676Z,57.34
2023-03-26T00:07:03.329Z,57.59
2023-03-26T00:09:30.483Z,56.66
2023-03-26T00:11:57.502Z,55.89
2023-03-26T00:14:25.117Z,54.87
2023-03-26T00:17:06.781Z,54.90
2023-03-26T00:19:34.452Z,55.57
2023-03-26T00:22:01.109Z,55.57
2023-03-26T00:24:27.775Z,57.46
2023-03-26T00:26:54.412Z,56.82
2023-03-26T00:29:21.516Z,54.72
2023-03-26T00:31:48.291Z,54.01
2023-03-26T00:34:15.046Z,52.33
2023-03-26T00:36:41.669Z,51.04
2023-03-26T00:39:08.346Z,51.58
2023-03-26T00:41:34.992Z,54.73
2023-03-26T00:44:01.635Z,53.03
2023-03-26T00:46:29.751Z,51.26
2023-03-26T00:48:56.383Z,52.21
2023-03-26T00:51:23.034Z,53.78
2023-03-26T00:53:49.988Z,52.46
2023-03-26T00:56:16.906Z,52.45
2023-03-26T00:58:43.577Z,52.48
2023-03-26T01:01:12.742Z,52.47
2023-03-26T01:03:39.643Z,53.62
2023-03-26T01:06:12.627Z,52.52
2023-03-26T01:08:44.290Z,53.53
2023-03-26T01:11:13.544Z,54.09
2023-03-26T01:13:43.381Z,55.32
2023-03-26T01:16:16.792Z,55.59
2023-03-26T01:18:43.439Z,55.44
2023-03-26T01:21:13.621Z,56.17
2023-03-26T01:23:45.946Z,56.16
2023-03-26T01:26:24.992Z,57.03
2023-03-26T01:28:55.619Z,57.48
2023-03-26T01:31:27.994Z,57.28
2023-03-26T01:34:23.417Z,56.83
2023-03-26T01:36:55.576Z,56.69
2023-03-26T01:39:36.658Z,56.63
2023-03-26T01:42:13.051Z,56.16
2023-03-26T01:44:44.000Z,55.73
2023-03-26T01:47:10.638Z,55.18
2023-03-26T01:49:37.296Z,55.81
2023-03-26T01:52:07.017Z,54.56
2023-03-26T01:54:33.649Z,55.45
2023-03-26T01:57:29.698Z,55.66
2023-03-26T02:00:05.266Z,56.62
2023-03-26T02:02:37.864Z,55.80
2023-03-26T02:05:13.721Z,56.67
2023-03-26T02:08:03.527Z,54.24
2023-03-26T02:10:33.936Z,54.29
2023-03-26T02:13:00.566Z,54.32
2023-03-26T02:15:27.321Z,52.68
2023-03-26T02:17:54.041Z,54.31
2023-03-26T02:20:20.969Z,54.53
2023-03-26T02:22:47.735Z,55.99
2023-03-26T02:25:18.220Z,55.56
2023-03-26T02:27:45.152Z,56.70
2023-03-26T02:30:16.877Z,56.46
2023-03-26T02:32:43.554Z,55.26
2023-03-26T02:35:10.864Z,55.68
2023-03-26T02:37:37.488Z,54.95
2023-03-26T02:40:04.354Z,55.12
2023-03-26T02:42:31.044Z,54.68
2023-03-26T02:44:57.697Z,54.79
2023-03-26T02:47:24.355Z,54.09
2023-03-26T02:49:51.025Z,53.73
2023-03-26T02:52:17.709Z,54.09
2023-03-26T02:54:44.343Z,55.53
2023-03-26T02:57:11.022Z,55.71
2023-03-26T02:59:37.684Z,54.50
2023-03-26T03:02:04.635Z,53.73
2023-03-26T03:04:31.294Z,53.84
2023-03-26T03:06:57.949Z,54.56
2023-03-26T03:09:24.656Z,54.71
2023-03-26T03:11:51.371Z,54.78
2023-03-26T03:14:18.452Z,54.97
2023-03-26T03:16:45.123Z,53.96
2023-03-26T03:19:12.158Z,52.50
2023-03-26T03:21:38.804Z,52.80
2023-03-26T03:24:05.560Z,53.30
2023-03-26T03:26:32.188Z,54.22
2023-03-26T03:28:58.810Z,51.34
2023-03-26T03:31:25.559Z,52.98
2023-03-26T03:33:52.332Z,52.74
2023-03-26T03:36:21.099Z,52.46
2023-03-26T03:38:48.753Z,51.04
2023-03-26T03:41:15.443Z,50.46
2023-03-26T03:43:42.100Z,50.45
2023-03-26T03:46:08.787Z,49.57
2023-03-26T03:48:35.435Z,50.09
2023-03-26T03:51:02.100Z,50.83
2023-03-26T03:53:28.768Z,51.18
2023-03-26T03:55:55.910Z,51.16
2023-03-26T03:58:23.864Z,49.98
2023-03-26T04:00:51.096Z,52.07
2023-03-26T04:03:18.251Z,51.40
2023-03-26T04:05:45.501Z,51.56
2023-03-26T04:08:12.141Z,52.17
2023-03-26T04:10:38.859Z,51.21
2023-03-26T04:13:05.475Z,51.03
2023-03-26T04:15:32.112Z,49.98
2023-03-26T04:17:58.801Z,50.17
2023-03-26T04:20:25.440Z,51.45
2023-03-26T04:22:52.068Z,52.66
2023-03-26T04:25:18.697Z,53.59
2023-03-26T04:27:45.326Z,55.37
2023-03-26T04:30:13.264Z,53.20
2023-03-26T04:32:39.957Z,56.29
2023-03-26T04:35:06.641Z,54.33
2023-03-26T04:37:37.380Z,53.25
2023-03-26T04:40:04.400Z,54.29
2023-03-26T04:42:31.041Z,54.39
2023-03-26T04:44:57.655Z,54.35
2023-03-26T04:47:24.337Z,53.52
2023-03-26T04:49:50.952Z,54.78
2023-03-26T04:52:17.589Z,55.37
2023-03-26T04:54:44.470Z,56.82
2023-03-26T04:57:26.476Z,58.14
2023-03-26T04:59:53.147Z,58.47
2023-03-26T05:02:19.785Z,58.65
2023-03-26T05:04:46.448Z,60.02
2023-03-26T05:07:17.035Z,62.41
2023-03-26T05:09:43.669Z,61.98
2023-03-26T05:12:10.330Z,62.74
2023-03-26T05:14:37.002Z,62.09
2023-03-26T05:17:03.860Z,61.96
2023-03-26T05:19:30.489Z,63.33
2023-03-26T05:21:57.123Z,65.06
2023-03-26T05:24:23.753Z,64.88
2023-03-26T05:26:51.119Z,67.27
2023-03-26T05:29:17.848Z,67.13
2023-03-26T05:31:44.482Z,66.01
2023-03-26T05:34:11.176Z,65.11
2023-03-26T05:36:37.813Z,66.86
2023-03-26T05:39:04.429Z,68.70
2023-03-26T05:41:31.063Z,71.57
2023-03-26T05:43:57.703Z,71.58
2023-03-26T05:46:24.335Z,71.34
2023-03-26T05:48:51.017Z,69.62
2023-03-26T05:51:17.667Z,70.59
2023-03-26T05:53:44.289Z,70.72
2023-03-26T05:56:10.904Z,69.98
2023-03-26T05:58:37.531Z,71.18
2023-03-26T06:01:08.862Z,69.17
2023-03-26T06:03:37.376Z,67.33
2023-03-26T06:06:07.172Z,66.95
2023-03-26T06:08:33.839Z,69.44
2023-03-26T06:11:01.502Z,68.33
2023-03-26T06:13:28.149Z,68.89
2023-03-26T06:15:54.867Z,68.33
2023-03-26T06:18:21.710Z,69.76
2023-03-26T06:20:48.383Z,68.88
2023-03-26T06:23:15.063Z,69.92
2023-03-26T06:25:41.703Z,69.11
2023-03-26T06:28:08.405Z,68.83
2023-03-26T06:30:35.167Z,68.88
2023-03-26T06:33:01.891Z,69.60
2023-03-26T06:35:28.610Z,69.71
2023-03-26T06:37:55.484Z,69.32
2023-03-26T06:40:22.132Z,69.85
2023-03-26T06:43:07.786Z,69.33
2023-03-26T06:45:35.373Z,69.11
2023-03-26T06:48:02.116Z,69.64
2023-03-26T06:50:29.325Z,71.75
2023-03-26T06:52:56.010Z,73.30
2023-03-26T06:55:22.874Z,73.11
2023-03-26T06:57:50.369Z,72.97
2023-03-26T07:00:17.284Z,73.97
2023-03-26T07:02:44.047Z,74.71
2023-03-26T07:05:10.831Z,75.22
2023-03-26T07:07:46.142Z,75.78
2023-03-26T07:10:13.651Z,73.56
2023-03-26T07:12:40.324Z,72.50
2023-03-26T07:15:07.470Z,73.59
2023-03-26T07:17:34.203Z,73.01
2023-03-26T07:20:00.886Z,73.16
2023-03-26T07:22:27.876Z,74.00
2023-03-26T07:24:54.878Z,71.83
2023-03-26T07:27:40.192Z,72.29
2023-03-26T07:30:27.356Z,72.19
2023-03-26T07:33:03.713Z,73.89
2023-03-26T07:35:50.404Z,73.48
2023-03-26T07:38:22.093Z,72.40
2023-03-26T07:40:58.190Z,72.14
2023-03-26T07:43:39.737Z,75.01
2023-03-26T07:46:09.339Z,77.58
2023-03-26T07:48:40.266Z,78.03
2023-03-26T07:51:07.315Z,78.03
2023-03-26T07:53:35.083Z,79.99
2023-03-26T07:56:10.268Z,80.69
2023-03-26T07:58:51.931Z,80.65
2023-03-26T08:01:46.381Z,81.22
2023-03-26T08:04:28.795Z,78.92
2023-03-26T08:07:02.804Z,77.07
2023-03-26T08:09:41.575Z,76.55
2023-03-26T08:12:17.658Z,76.66
2023-03-26T08:14:53.237Z,76.18
2023-03-26T08:17:34.925Z,75.78
2023-03-26T08:20:35.738Z,74.89
2023-03-26T08:23:13.943Z,75.74
2023-03-26T08:25:50.411Z,77.20
2023-03-26T08:28:44.938Z,78.15
2023-03-26T08:31:11.750Z,77.83
2023-03-26T08:33:41.412Z,76.82
2023-03-26T08:36:09.016Z,78.00
2023-03-26T08:38:35.752Z,78.66
2023-03-26T08:41:12.621Z,79.06
2023-03-26T08:44:04.229Z,78.26
2023-03-26T08:46:49.497Z,80.17
2023-03-26T08:49:42.334Z,75.79
2023-03-26T08:52:35.710Z,73.54
2023-03-26T08:55:20.581Z,75.53
2023-03-26T08:58:13.250Z,74.32
2023-03-26T09:00:40.449Z,75.29
2023-03-26T09:03:32.308Z,73.38
2023-03-26T09:05:58.842Z,75.66
2023-03-26T09:09:02.643Z,76.65
2023-03-26T09:11:49.038Z,78.55
2023-03-26T09:14:44.661Z,80.32
2023-03-26T09:20:53.107Z,80.11
2023-03-26T09:23:51.939Z,80.91
2023-03-26T09:26:24.109Z,82.11
2023-03-26T09:29:12.977Z,83.36
2023-03-26T09:31:52.673Z,82.93
2023-03-26T09:34:38.285Z,82.72
2023-03-26T09:37:11.940Z,82.08
2023-03-26T09:39:47.254Z,80.18
2023-03-26T09:42:30.303Z,79.31
2023-03-26T09:45:20.913Z,78.84
2023-03-26T09:48:13.447Z,77.38
2023-03-26T09:51:14.095Z,79.64
2023-03-26T09:53:59.270Z,78.46
2023-03-26T09:56:31.961Z,78.14
2023-03-26T09:59:08.018Z,79.02
2023-03-26T10:02:05.183Z,77.31
2023-03-26T10:04:56.607Z,77.12
2023-03-26T10:07:32.177Z,76.44
2023-03-26T10:10:09.095Z,79.02
2023-03-26T10:12:46.311Z,78.47
2023-03-26T10:15:25.231Z,78.80
2023-03-26T10:18:27.539Z,76.78
2023-03-26T10:21:04.178Z,74.33
2023-03-26T10:23:45.914Z,71.75
2023-03-26T10:26:18.393Z,71.67
2023-03-26T10:29:06.699Z,67.94
2023-03-26T10:31:37.298Z,65.89
2023-03-26T10:34:49.700Z,71.11
2023-03-26T10:37:32.425Z,69.32
2023-03-26T10:40:32.834Z,70.34
2023-03-26T10:43:05.430Z,72.54
2023-03-26T10:45:53.637Z,71.30
2023-03-26T10:48:26.216Z,67.05
2023-03-26T10:51:13.891Z,63.93
2023-03-26T10:54:03.154Z,66.29
2023-03-26T10:56:35.064Z,64.62
2023-03-26T10:59:10.724Z,67.22
2023-03-26T11:01:58.607Z,65.92
2023-03-26T11:04:32.420Z,68.03
2023-03-26T11:07:21.396Z,66.38
2023-03-26T11:10:02.307Z,69.00
2023-03-26T11:12:30.106Z,66.85
2023-03-26T11:14:58.409Z,66.00
2023-03-26T11:17:49.315Z,66.60
2023-03-26T11:20:35.065Z,66.44
2023-03-26T11:23:11.928Z,67.29
2023-03-26T11:25:41.349Z,66.75
2023-03-26T11:28:07.924Z,66.86
2023-03-26T11:30:43.239Z,67.87
2023-03-26T11:33:22.552Z,68.24
2023-03-26T11:35:50.647Z,65.87
2023-03-26T11:38:29.272Z,65.82
2023-03-26T11:40:56.682Z,65.80
2023-03-26T11:43:29.953Z,67.55
2023-03-26T11:45:56.630Z,67.48
2023-03-26T11:48:35.773Z,67.42
2023-03-26T11:51:11.829Z,67.67
2023-03-26T11:53:38.860Z,66.69
2023-03-26T11:56:28.814Z,64.72
2023-03-26T11:59:08.867Z,67.23
2023-03-26T12:01:51.451Z,66.39
2023-03-26T12:04:38.681Z,66.33
2023-03-26T12:07:17.812Z,66.44
2023-03-26T12:09:57.742Z,64.99
2023-03-26T12:12:44.629Z,63.85
2023-03-26T12:15:18.770Z,63.31
2023-03-26T12:17:46.458Z,63.89
2023-03-26T12:20:25.224Z,62.11
2023-03-26T12:22:52.216Z,60.54
2023-03-26T12:25:28.441Z,62.24
2023-03-26T12:28:13.323Z,61.90
2023-03-26T12:31:03.368Z,61.09
2023-03-26T12:33:31.280Z,61.27
2023-03-26T12:35:58.049Z,62.03
2023-03-26T12:38:31.590Z,62.39
2023-03-26T12:44:42.570Z,62.65
2023-03-26T12:44:54.711Z,64.22
2023-03-26T12:47:59.420Z,61.24
2023-03-26T12:49:36.052Z,61.59
2023-03-26T12:52:10.037Z,61.59
2023-03-26T12:54:42.517Z,59.75
2023-03-26T12:57:25.424Z,60.44
2023-03-26T12:59:57.902Z,59.44
2023-03-26T13:02:43.171Z,60.39
2023-03-26T13:05:35.524Z,60.19
2023-03-26T13:08:17.228Z,61.05
2023-03-26T13:11:02.563Z,61.65
2023-03-26T13:13:38.281Z,67.02
2023-03-26T13:16:09.608Z,67.92
2023-03-26T13:18:44.422Z,68.94
2023-03-26T13:21:12.807Z,68.17
2023-03-26T13:23:49.091Z,69.14
2023-03-26T13:26:18.894Z,67.36
2023-03-26T13:29:07.335Z,66.39
2023-03-26T13:31:42.570Z,67.10
2023-03-26T13:34:34.229Z,68.00
2023-03-26T13:37:14.900Z,66.18
2023-03-26T13:40:04.587Z,67.84
2023-03-26T13:43:08.322Z,64.51
2023-03-26T13:46:03.095Z,65.36
2023-03-26T13:48:57.328Z,63.78
2023-03-26T13:51:27.681Z,63.07
2023-03-26T13:54:09.086Z,65.90
2023-03-26T13:56:40.859Z,68.36
2023-03-26T13:59:16.267Z,67.02
2023-03-26T14:01:50.589Z,68.49
2023-03-26T14:04:39.380Z,67.67
2023-03-26T14:07:12.135Z,65.37
2023-03-26T14:13:21.017Z,69.14
2023-03-26T14:15:56.485Z,67.85
2023-03-26T14:18:46.923Z,69.81
2023-03-26T14:21:38.946Z,66.75
2023-03-26T14:24:41.685Z,65.05
2023-03-26T14:27:22.736Z,68.24
2023-03-26T14:29:59.932Z,69.57
2023-03-26T14:32:37.713Z,66.80
2023-03-26T14:35:13.265Z,66.86
2023-03-26T14:37:56.910Z,66.63
2023-03-26T14:41:01.677Z,65.67
2023-03-26T14:44:01.525Z,63.46
2023-03-26T14:46:41.181Z,60.62
2023-03-26T14:49:08.688Z,60.78
2023-03-26T14:51:36.229Z,65.82
2023-03-26T14:54:11.097Z,65.31
2023-03-26T14:56:47.536Z,63.89
2023-03-26T14:59:19.228Z,66.44
2023-03-26T15:02:11.127Z,67.00
2023-03-26T15:04:59.721Z,70.63
2023-03-26T15:07:48.492Z,71.68
2023-03-26T15:10:27.139Z,71.85
2023-03-26T15:13:19.979Z,72.36
2023-03-26T15:16:11.663Z,73.60
2023-03-26T15:19:24.387Z,74.09
2023-03-26T15:22:34.380Z,73.81
2023-03-26T15:25:33.078Z,73.15
2023-03-26T15:28:13.737Z,73.31
2023-03-26T15:31:21.490Z,72.83
2023-03-26T15:34:11.580Z,71.73
2023-03-26T15:37:02.542Z,71.16
2023-03-26T15:40:01.890Z,69.73
2023-03-26T15:42:42.310Z,70.66
2023-03-26T15:45:38.108Z,71.94
2023-03-26T15:48:12.106Z,72.38
2023-03-26T15:51:02.907Z,72.41
2023-03-26T15:53:48.481Z,73.02
2023-03-26T15:56:53.027Z,72.07
2023-03-26T15:59:42.921Z,73.04
2023-03-26T16:02:31.637Z,72.83
2023-03-26T16:05:05.905Z,70.00
2023-03-26T16:07:54.558Z,69.92
2023-03-26T16:10:23.930Z,70.55
2023-03-26T16:12:56.419Z,70.06
2023-03-26T16:15:27.290Z,69.13
2023-03-26T16:18:09.500Z,67.15
2023-03-26T16:20:48.248Z,68.68
2023-03-26T16:23:26.657Z,70.14
2023-03-26T16:25:58.384Z,69.58
2023-03-26T16:28:30.434Z,68.90
2023-03-26T16:31:37.280Z,68.47
2023-03-26T16:34:13.607Z,68.12
2023-03-26T16:36:44.434Z,68.39
2023-03-26T16:39:46.519Z,67.50
2023-03-26T16:42:15.750Z,64.67
2023-03-26T16:44:49.335Z,64.16
2023-03-26T16:47:24.518Z,64.59
2023-03-26T16:50:09.078Z,61.17
2023-03-26T16:53:06.743Z,62.50
2023-03-26T16:56:15.988Z,64.15
2023-03-26T16:58:56.308Z,64.65
2023-03-26T17:01:40.153Z,64.53
2023-03-26T17:04:24.176Z,65.42
2023-03-26T17:07:22.865Z,62.95
2023-03-26T17:10:15.502Z,62.92
2023-03-26T17:12:55.354Z,64.16
2023-03-26T17:15:55.746Z,60.61
2023-03-26T17:18:24.732Z,62.26
2023-03-26T17:21:04.217Z,59.66
2023-03-26T17:23:55.755Z,61.24
2023-03-26T17:26:26.181Z,61.33
2023-03-26T17:29:22.194Z,58.86
2023-03-26T17:32:11.774Z,59.13
2023-03-26T17:34:38.381Z,59.19
2023-03-26T17:37:09.205Z,57.95
2023-03-26T17:39:38.667Z,60.20
2023-03-26T17:42:18.811Z,61.49
2023-03-26T17:45:16.561Z,61.73
2023-03-26T17:48:05.296Z,61.56
2023-03-26T17:50:32.734Z,63.20
2023-03-26T17:53:07.581Z,62.35
2023-03-26T17:55:36.528Z,60.09
2023-03-26T17:58:06.926Z,62.12
2023-03-26T18:00:56.001Z,63.36
2023-03-26T18:03:29.561Z,63.01
2023-03-26T18:06:06.982Z,62.52
2023-03-26T18:09:02.718Z,62.12
2023-03-26T18:12:00.928Z,60.61
2023-03-26T18:14:37.745Z,57.38
2023-03-26T18:17:04.376Z,57.87
2023-03-26T18:19:31.307Z,56.92
2023-03-26T18:21:59.226Z,58.46
2023-03-26T18:24:28.809Z,59.93
2023-03-26T18:27:02.147Z,59.68
2023-03-26T18:29:30.144Z,59.80
2023-03-26T18:32:01.346Z,61.48
2023-03-26T18:34:32.993Z,58.35
2023-03-26T18:37:03.618Z,56.49
2023-03-26T18:39:31.231Z,57.67
2023-03-26T18:41:58.819Z,58.42
2023-03-26T18:44:26.400Z,59.58
2023-03-26T18:46:54.000Z,59.80
2023-03-26T18:49:21.593Z,59.32
2023-03-26T18:51:56.877Z,60.71
2023-03-26T18:54:24.387Z,60.53
2023-03-26T18:56:51.084Z,59.75
2023-03-26T18:59:26.953Z,61.08
2023-03-26T19:02:02.322Z,58.48
2023-03-26T19:04:29.048Z,61.07
2023-03-26T19:06:56.872Z,59.27
2023-03-26T19:09:31.756Z,60.44
2023-03-26T19:12:07.152Z,61.60
2023-03-26T19:14:34.725Z,62.11
2023-03-26T19:17:01.572Z,59.86
2023-03-26T19:19:36.197Z,59.40
2023-03-26T19:22:04.962Z,59.59
2023-03-26T19:24:32.137Z,59.49
2023-03-26T19:26:58.905Z,60.40
2023-03-26T19:29:31.083Z,58.94
2023-03-26T19:32:02.229Z,59.93
2023-03-26T19:34:38.604Z,64.39
2023-03-26T19:37:20.224Z,60.69
2023-03-26T19:39:54.205Z,61.02
2023-03-26T19:42:43.927Z,63.11
2023-03-26T19:45:21.117Z,63.05
2023-03-26T19:47:50.432Z,63.30
2023-03-26T19:50:25.359Z,63.77
2023-03-26T19:53:19.309Z,62.16
2023-03-26T19:55:56.490Z,63.89
2023-03-26T19:58:23.612Z,63.21
2023-03-26T20:00:50.291Z,62.21
2023-03-26T20:03:17.016Z,63.00
2023-03-26T20:05:43.721Z,63.94
2023-03-26T20:08:13.231Z,63.14
2023-03-26T20:10:40.058Z,63.10
2023-03-26T20:13:16.183Z,65.48
2023-03-26T20:15:45.145Z,65.77
2023-03-26T20:18:11.929Z,63.97
2023-03-26T20:20:38.638Z,64.32
2023-03-26T20:23:06.000Z,63.98
2023-03-26T20:25:33.243Z,63.92
2023-03-26T20:27:59.886Z,62.01
2023-03-26T20:33:11.983Z,61.83
2023-03-26T20:35:39.749Z,62.89
2023-03-26T20:38:06.382Z,63.18
2023-03-26T20:40:32.994Z,63.91
2023-03-26T20:42:59.607Z,62.85
2023-03-26T20:45:26.269Z,63.65
2023-03-26T20:47:53.040Z,65.08
2023-03-26T20:50:21.181Z,65.39
2023-03-26T20:52:47.807Z,67.38
2023-03-26T20:55:15.295Z,66.80
2023-03-26T20:57:42.348Z,67.22
2023-03-26T21:00:10.004Z,65.90
2023-03-26T21:02:36.737Z,64.41
2023-03-26T21:05:03.426Z,64.14
2023-03-26T21:07:30.050Z,63.92
2023-03-26T21:09:56.880Z,64.16
2023-03-26T21:12:34.535Z,63.70
2023-03-26T21:15:01.767Z,63.97
2023-03-26T21:17:31.857Z,63.69
2023-03-26T21:19:58.663Z,64.02
2023-03-26T21:22:40.061Z,65.99
2023-03-26T21:25:15.107Z,65.86
2023-03-26T21:27:45.521Z,63.43
2023-03-26T21:30:13.718Z,64.04
2023-03-26T21:32:41.434Z,64.20
2023-03-26T21:35:08.797Z,63.10
2023-03-26T21:37:35.632Z,64.21
2023-03-26T21:40:02.452Z,64.45
2023-03-26T21:42:29.349Z,64.18
2023-03-26T21:44:56.250Z,64.54
2023-03-26T21:47:23.025Z,65.79
2023-03-26T21:49:49.862Z,65.90
2023-03-26T21:52:16.618Z,67.63
2023-03-26T21:54:43.475Z,67.89
2023-03-26T21:57:42.599Z,68.85
2023-03-26T22:00:13.764Z,69.35
2023-03-26T22:03:15.102Z,69.50
2023-03-26T22:06:15.689Z,67.20
2023-03-26T22:08:42.756Z,67.93
2023-03-26T22:11:10.491Z,67.33
2023-03-26T22:13:37.198Z,68.04
2023-03-26T22:16:04.193Z,67.64
2023-03-26T22:18:30.840Z,69.51
2023-03-26T22:20:57.666Z,67.94
2023-03-26T22:23:24.509Z,67.48
2023-03-26T22:25:51.126Z,66.82
2023-03-26T22:28:18.244Z,66.39
2023-03-26T22:30:44.961Z,66.78
2023-03-26T22:33:11.696Z,66.75
2023-03-26T22:35:38.959Z,66.05
2023-03-26T22:38:05.660Z,66.35
2023-03-26T22:40:32.281Z,65.82
2023-03-26T22:42:58.911Z,65.17
2023-03-26T22:45:25.520Z,64.78
2023-03-26T22:47:52.181Z,66.21
2023-03-26T22:50:30.709Z,67.64
2023-03-26T22:52:57.366Z,68.89
2023-03-26T22:55:28.649Z,68.59
2023-03-26T22:57:56.145Z,68.10
2023-03-26T23:00:22.866Z,67.97
2023-03-26T23:02:49.652Z,69.25
2023-03-26T23:05:16.345Z,68.60
2023-03-26T23:07:42.981Z,69.14
2023-03-26T23:10:10.119Z,70.89
2023-03-26T23:12:37.865Z,70.60
2023-03-26T23:15:05.251Z,71.30
2023-03-26T23:17:35.276Z,70.81
2023-03-26T23:20:02.774Z,70.29
2023-03-26T23:22:29.440Z,70.17
2023-03-26T23:24:56.066Z,68.58
2023-03-26T23:27:22.780Z,69.38
2023-03-26T23:29:49.487Z,68.34
2023-03-26T23:32:23.409Z,68.62
2023-03-26T23:34:52.123Z,68.80
2023-03-26T23:37:19.244Z,68.30
2023-03-26T23:39:45.853Z,67.89
2023-03-26T23:42:12.494Z,67.92
2023-03-26T23:44:39.144Z,68.64
2023-03-26T23:47:05.783Z,68.15
2023-03-26T23:49:32.425Z,68.17
2023-03-26T23:51:59.038Z,68.12
2023-03-26T23:54:25.655Z,68.66
2023-03-26T23:56:52.300Z,69.03
2023-03-26T23:59:18.950Z,68.71
